Rechercher aéroport 
image banner adimage banner adimage banner ad
image banner ad

CL68 - Platform Harvest

Situé à Santa Maria, United States

ICAO - CL68, IATA -

Données fournies par Airmate  

Information générale

Coordonnées: N34°28'9" W120°40'55"
Élévation : 178 feet MSL.
Variation magnétique : 14° East
Voir autres Aéroports à California

Données opérationnelles

Special qualification required
Heure actuelle UTC:
Heure actuelle locale:
Météo à : KLPC - Lompoc ( 29 km )
METAR: KLPC 262256Z AUTO 25006KT 10SM 19/16 A2996 RMK AO2 SLP146 T01890156 $
Voir NOTAMs / SUP AIP / TFR affectant cet aéroport [VIEW]
Fréquences de communication: [VIEW]

Pistes:

Coordonnées de l'aéroport

Adresse: Santa Maria United States

Vue satellite de CL68